sensor_id;sensor_type;location;lat;lon;timestamp;pressure;altitude;pressure_sealevel;temperature;humidity
67517;BME280;54359;59.124;37.910;2022-10-31T00:01:25;97494.72;;;-0.25;94.76
67517;BME280;54359;59.124;37.910;2022-10-31T00:03:53;97527.72;;;-0.09;94.90
67517;BME280;54359;59.124;37.910;2022-10-31T00:06:40;97493.06;;;-0.24;94.89
67517;BME280;54359;59.124;37.910;2022-10-31T00:09:25;97468.44;;;-0.41;95.14
67517;BME280;54359;59.124;37.910;2022-10-31T00:12:09;97529.53;;;-0.01;95.21
67517;BME280;54359;59.124;37.910;2022-10-31T00:14:55;97513.44;;;-0.07;94.96
67517;BME280;54359;59.124;37.910;2022-10-31T00:17:39;97514.22;;;-0.13;95.46
67517;BME280;54359;59.124;37.910;2022-10-31T00:20:24;97515.16;;;-0.06;95.16
67517;BME280;54359;59.124;37.910;2022-10-31T00:23:09;97507.47;;;-0.14;95.06
67517;BME280;54359;59.124;37.910;2022-10-31T00:25:54;97517.56;;;-0.15;95.34
67517;BME280;54359;59.124;37.910;2022-10-31T00:28:38;97563.09;;;-0.09;94.97
67517;BME280;54359;59.124;37.910;2022-10-31T00:31:08;97540.34;;;-0.12;94.87
67517;BME280;54359;59.124;37.910;2022-10-31T00:33:36;97527.56;;;-0.22;94.95
67517;BME280;54359;59.124;37.910;2022-10-31T00:36:04;97554.72;;;-0.05;95.32
67517;BME280;54359;59.124;37.910;2022-10-31T00:38:30;97536.88;;;-0.17;95.33
67517;BME280;54359;59.124;37.910;2022-10-31T00:41:19;97540.31;;;-0.14;95.50
67517;BME280;54359;59.124;37.910;2022-10-31T00:43:47;97521.56;;;-0.30;95.03
67517;BME280;54359;59.124;37.910;2022-10-31T00:46:39;97574.16;;;0.01;95.27
67517;BME280;54359;59.124;37.910;2022-10-31T00:49:23;97612.19;;;0.11;95.38
67517;BME280;54359;59.124;37.910;2022-10-31T00:52:16;97591.94;;;0.10;95.07
67517;BME280;54359;59.124;37.910;2022-10-31T00:55:04;97590.97;;;-0.02;95.39
67517;BME280;54359;59.124;37.910;2022-10-31T00:57:33;97612.25;;;0.14;94.78
67517;BME280;54359;59.124;37.910;2022-10-31T01:00:47;97628.25;;;0.16;95.16
67517;BME280;54359;59.124;37.910;2022-10-31T01:03:49;97629.94;;;0.17;95.09
67517;BME280;54359;59.124;37.910;2022-10-31T01:06:15;97626.41;;;0.05;95.17
67517;BME280;54359;59.124;37.910;2022-10-31T01:09:03;97642.63;;;0.21;95.00
67517;BME280;54359;59.124;37.910;2022-10-31T01:11:57;97630.72;;;0.13;94.79
67517;BME280;54359;59.124;37.910;2022-10-31T01:14:46;97648.31;;;0.07;95.36
67517;BME280;54359;59.124;37.910;2022-10-31T01:17:36;97636.38;;;-0.05;94.96
67517;BME280;54359;59.124;37.910;2022-10-31T01:20:05;97610.91;;;-0.20;94.92
67517;BME280;54359;59.124;37.910;2022-10-31T01:22:34;97665.97;;;0.04;95.06
67517;BME280;54359;59.124;37.910;2022-10-31T01:25:23;97698.22;;;0.22;95.13
67517;BME280;54359;59.124;37.910;2022-10-31T01:27:50;97658.97;;;-0.14;95.04
67517;BME280;54359;59.124;37.910;2022-10-31T01:30:16;97716.69;;;0.19;95.41
67517;BME280;54359;59.124;37.910;2022-10-31T01:33:02;97715.81;;;0.16;95.36
67517;BME280;54359;59.124;37.910;2022-10-31T01:35:28;97709.81;;;0.09;95.17
67517;BME280;54359;59.124;37.910;2022-10-31T01:37:55;97753.94;;;0.31;95.37
67517;BME280;54359;59.124;37.910;2022-10-31T01:40:39;97726.78;;;0.16;95.53
67517;BME280;54359;59.124;37.910;2022-10-31T01:43:41;97741.16;;;0.21;95.20
67517;BME280;54359;59.124;37.910;2022-10-31T01:46:07;97741.03;;;0.13;95.22
67517;BME280;54359;59.124;37.910;2022-10-31T01:48:53;97728.38;;;0.11;95.06
67517;BME280;54359;59.124;37.910;2022-10-31T01:51:22;97769.03;;;0.28;95.44
67517;BME280;54359;59.124;37.910;2022-10-31T01:53:50;97770.59;;;0.20;95.15
67517;BME280;54359;59.124;37.910;2022-10-31T01:56:39;97780.66;;;0.17;95.23
67517;BME280;54359;59.124;37.910;2022-10-31T02:05:29;97851.66;;;0.31;94.67
67517;BME280;54359;59.124;37.910;2022-10-31T02:11:03;97864.91;;;0.19;94.91
67517;BME280;54359;59.124;37.910;2022-10-31T02:13:30;97885.19;;;0.24;94.84
67517;BME280;54359;59.124;37.910;2022-10-31T02:16:15;97889.38;;;0.22;94.01
67517;BME280;54359;59.124;37.910;2022-10-31T02:19:02;97866.22;;;-0.02;95.05
67517;BME280;54359;59.124;37.910;2022-10-31T02:22:07;97912.69;;;0.07;94.51
67517;BME280;54359;59.124;37.910;2022-10-31T02:30:21;97914.47;;;-0.32;93.87
67517;BME280;54359;59.124;37.910;2022-10-31T02:36:30;97960.28;;;-0.13;94.17
67517;BME280;54359;59.124;37.910;2022-10-31T02:42:14;97972.56;;;-0.30;94.72
67517;BME280;54359;59.124;37.910;2022-10-31T02:44:53;97987.00;;;-0.25;94.25
67517;BME280;54359;59.124;37.910;2022-10-31T02:47:28;97992.81;;;-0.29;94.21
67517;BME280;54359;59.124;37.910;2022-10-31T02:50:38;98017.25;;;-0.26;94.14
67517;BME280;54359;59.124;37.910;2022-10-31T02:54:24;98030.72;;;-0.26;94.67
67517;BME280;54359;59.124;37.910;2022-10-31T02:57:15;98028.06;;;-0.32;94.42
67517;BME280;54359;59.124;37.910;2022-10-31T03:00:08;97981.97;;;-0.63;94.25
67517;BME280;54359;59.124;37.910;2022-10-31T03:03:19;98048.38;;;-0.26;94.83
67517;BME280;54359;59.124;37.910;2022-10-31T03:06:20;98021.94;;;-0.43;94.73
67517;BME280;54359;59.124;37.910;2022-10-31T03:09:26;98034.41;;;-0.49;94.68
67517;BME280;54359;59.124;37.910;2022-10-31T03:15:43;98079.47;;;-0.28;94.91
67517;BME280;54359;59.124;37.910;2022-10-31T03:21:41;98097.94;;;-0.29;94.57
67517;BME280;54359;59.124;37.910;2022-10-31T03:24:54;98077.13;;;-0.57;94.56
67517;BME280;54359;59.124;37.910;2022-10-31T03:27:33;98076.13;;;-0.64;94.31
67517;BME280;54359;59.124;37.910;2022-10-31T03:30:20;98054.63;;;-0.84;94.39
67517;BME280;54359;59.124;37.910;2022-10-31T03:32:57;98137.06;;;-0.48;94.27
67517;BME280;54359;59.124;37.910;2022-10-31T03:35:30;98134.53;;;-0.48;94.79
67517;BME280;54359;59.124;37.910;2022-10-31T03:38:03;98097.03;;;-0.69;94.61
67517;BME280;54359;59.124;37.910;2022-10-31T03:40:31;98146.31;;;-0.49;94.89
67517;BME280;54359;59.124;37.910;2022-10-31T03:43:22;98153.19;;;-0.42;94.81
67517;BME280;54359;59.124;37.910;2022-10-31T03:45:51;98136.75;;;-0.61;94.93
67517;BME280;54359;59.124;37.910;2022-10-31T03:48:19;98136.06;;;-0.55;94.99
67517;BME280;54359;59.124;37.910;2022-10-31T03:50:58;98179.63;;;-0.27;95.54
67517;BME280;54359;59.124;37.910;2022-10-31T03:53:40;98115.78;;;-0.58;95.49
67517;BME280;54359;59.124;37.910;2022-10-31T03:56:52;98178.28;;;-0.14;95.80
67517;BME280;54359;59.124;37.910;2022-10-31T03:59:43;98179.16;;;-0.12;95.29
67517;BME280;54359;59.124;37.910;2022-10-31T04:05:50;98211.50;;;0.03;95.79
67517;BME280;54359;59.124;37.910;2022-10-31T04:08:23;98192.63;;;-0.12;95.96
67517;BME280;54359;59.124;37.910;2022-10-31T04:10:53;98227.63;;;0.09;95.18
67517;BME280;54359;59.124;37.910;2022-10-31T04:13:42;98221.66;;;0.06;95.43
67517;BME280;54359;59.124;37.910;2022-10-31T04:16:32;98202.03;;;-0.06;95.23
67517;BME280;54359;59.124;37.910;2022-10-31T04:19:23;98240.50;;;0.18;95.32
67517;BME280;54359;59.124;37.910;2022-10-31T04:21:56;98205.66;;;0.05;95.13
67517;BME280;54359;59.124;37.910;2022-10-31T04:24:44;98200.44;;;-0.01;95.36
67517;BME280;54359;59.124;37.910;2022-10-31T04:27:15;98232.03;;;0.18;94.95
67517;BME280;54359;59.124;37.910;2022-10-31T04:30:00;98245.84;;;0.31;95.38
67517;BME280;54359;59.124;37.910;2022-10-31T04:32:27;98241.41;;;0.22;95.73
67517;BME280;54359;59.124;37.910;2022-10-31T04:35:11;98237.38;;;0.30;95.03
67517;BME280;54359;59.124;37.910;2022-10-31T04:37:37;98257.78;;;0.38;95.34
67517;BME280;54359;59.124;37.910;2022-10-31T04:40:22;98244.19;;;0.33;95.24
67517;BME280;54359;59.124;37.910;2022-10-31T04:43:27;98265.50;;;0.44;95.33
67517;BME280;54359;59.124;37.910;2022-10-31T04:46:13;98247.56;;;0.33;95.60
67517;BME280;54359;59.124;37.910;2022-10-31T04:48:39;98274.81;;;0.45;95.13
67517;BME280;54359;59.124;37.910;2022-10-31T04:51:07;98292.59;;;0.50;95.36
67517;BME280;54359;59.124;37.910;2022-10-31T04:54:20;98267.97;;;0.41;95.35
67517;BME280;54359;59.124;37.910;2022-10-31T04:57:24;98315.69;;;0.65;95.54
67517;BME280;54359;59.124;37.910;2022-10-31T04:59:52;98300.69;;;0.73;95.16
67517;BME280;54359;59.124;37.910;2022-10-31T05:02:18;98291.94;;;0.58;95.51
67517;BME280;54359;59.124;37.910;2022-10-31T05:05:03;98329.50;;;0.79;95.31
67517;BME280;54359;59.124;37.910;2022-10-31T05:07:52;98338.06;;;0.85;94.91
67517;BME280;54359;59.124;37.910;2022-10-31T05:10:38;98308.84;;;0.59;94.80
67517;BME280;54359;59.124;37.910;2022-10-31T05:13:04;98309.66;;;0.58;94.93
67517;BME280;54359;59.124;37.910;2022-10-31T05:16:18;98339.31;;;0.66;95.01
67517;BME280;54359;59.124;37.910;2022-10-31T05:19:16;98347.00;;;0.70;94.94
67517;BME280;54359;59.124;37.910;2022-10-31T05:22:33;98365.00;;;0.83;95.40
67517;BME280;54359;59.124;37.910;2022-10-31T05:24:59;98348.75;;;0.73;94.98
67517;BME280;54359;59.124;37.910;2022-10-31T05:27:28;98369.34;;;0.88;94.96
67517;BME280;54359;59.124;37.910;2022-10-31T05:30:15;98383.03;;;0.96;94.74
67517;BME280;54359;59.124;37.910;2022-10-31T05:33:02;98383.69;;;0.89;95.77
67517;BME280;54359;59.124;37.910;2022-10-31T05:36:06;98392.25;;;0.96;95.37
67517;BME280;54359;59.124;37.910;2022-10-31T05:38:42;98399.25;;;1.06;95.51
67517;BME280;54359;59.124;37.910;2022-10-31T05:41:32;98378.53;;;0.85;95.38
67517;BME280;54359;59.124;37.910;2022-10-31T05:44:40;98423.88;;;1.13;95.42
67517;BME280;54359;59.124;37.910;2022-10-31T05:47:39;98425.56;;;1.13;95.53
67517;BME280;54359;59.124;37.910;2022-10-31T05:54:14;98413.63;;;1.07;95.14
67517;BME280;54359;59.124;37.910;2022-10-31T05:57:04;98418.59;;;1.04;95.16
67517;BME280;54359;59.124;37.910;2022-10-31T05:59:43;98432.13;;;1.06;94.99
67517;BME280;54359;59.124;37.910;2022-10-31T06:02:33;98455.31;;;1.23;95.24
67517;BME280;54359;59.124;37.910;2022-10-31T06:05:51;98452.56;;;1.14;94.97
67517;BME280;54359;59.124;37.910;2022-10-31T06:08:18;98413.66;;;1.09;95.22
67517;BME280;54359;59.124;37.910;2022-10-31T06:11:07;98398.06;;;0.90;94.84
67517;BME280;54359;59.124;37.910;2022-10-31T06:14:11;98445.44;;;0.97;95.38
67517;BME280;54359;59.124;37.910;2022-10-31T06:16:56;98452.38;;;1.05;95.28
67517;BME280;54359;59.124;37.910;2022-10-31T06:19:42;98465.88;;;1.05;95.47
67517;BME280;54359;59.124;37.910;2022-10-31T06:22:28;98450.06;;;1.15;95.03
67517;BME280;54359;59.124;37.910;2022-10-31T06:25:13;98460.28;;;1.20;95.48
67517;BME280;54359;59.124;37.910;2022-10-31T06:27:44;98430.25;;;0.97;95.55
67517;BME280;54359;59.124;37.910;2022-10-31T06:30:13;98414.94;;;0.91;95.32
67517;BME280;54359;59.124;37.910;2022-10-31T06:32:39;98454.34;;;1.18;95.32
67517;BME280;54359;59.124;37.910;2022-10-31T06:35:30;98444.81;;;1.08;95.36
67517;BME280;54359;59.124;37.910;2022-10-31T06:37:59;98433.91;;;1.09;95.50
67517;BME280;54359;59.124;37.910;2022-10-31T06:40:43;98477.50;;;1.35;95.82
67517;BME280;54359;59.124;37.910;2022-10-31T06:43:32;98427.25;;;1.14;95.57
67517;BME280;54359;59.124;37.910;2022-10-31T06:46:40;98437.63;;;1.25;95.24
67517;BME280;54359;59.124;37.910;2022-10-31T06:49:43;98467.56;;;1.43;95.20
67517;BME280;54359;59.124;37.910;2022-10-31T06:52:28;98457.44;;;1.43;95.65
67517;BME280;54359;59.124;37.910;2022-10-31T06:54:55;98457.25;;;1.35;95.69
67517;BME280;54359;59.124;37.910;2022-10-31T06:57:22;98457.50;;;1.46;95.79
67517;BME280;54359;59.124;37.910;2022-10-31T07:00:07;98459.78;;;1.73;96.43
67517;BME280;54359;59.124;37.910;2022-10-31T07:03:05;98460.03;;;1.85;95.99
67517;BME280;54359;59.124;37.910;2022-10-31T07:10:12;98508.38;;;1.96;94.70
67517;BME280;54359;59.124;37.910;2022-10-31T07:13:04;98476.63;;;1.71;94.94
67517;BME280;54359;59.124;37.910;2022-10-31T07:15:40;98507.28;;;1.83;95.04
67517;BME280;54359;59.124;37.910;2022-10-31T07:18:28;98496.09;;;1.73;94.98
67517;BME280;54359;59.124;37.910;2022-10-31T07:20:56;98500.91;;;1.63;95.54
67517;BME280;54359;59.124;37.910;2022-10-31T07:23:22;98534.16;;;1.78;95.46
67517;BME280;54359;59.124;37.910;2022-10-31T07:26:09;98499.91;;;1.54;94.92
67517;BME280;54359;59.124;37.910;2022-10-31T07:28:41;98498.25;;;1.56;95.63
67517;BME280;54359;59.124;37.910;2022-10-31T07:31:08;98473.66;;;1.51;95.26
67517;BME280;54359;59.124;37.910;2022-10-31T07:33:36;98515.41;;;1.68;95.29
67517;BME280;54359;59.124;37.910;2022-10-31T07:36:21;98497.56;;;1.64;95.50
67517;BME280;54359;59.124;37.910;2022-10-31T07:38:47;98539.38;;;1.83;95.36
67517;BME280;54359;59.124;37.910;2022-10-31T07:41:34;98474.22;;;1.77;95.71
67517;BME280;54359;59.124;37.910;2022-10-31T07:44:00;98494.16;;;1.63;95.48
67517;BME280;54359;59.124;37.910;2022-10-31T07:47:04;98525.19;;;1.91;95.54
67517;BME280;54359;59.124;37.910;2022-10-31T07:50:09;98504.75;;;1.83;95.84
67517;BME280;54359;59.124;37.910;2022-10-31T07:53:01;98510.03;;;1.94;95.81
67517;BME280;54359;59.124;37.910;2022-10-31T07:55:45;98492.34;;;1.95;95.92
67517;BME280;54359;59.124;37.910;2022-10-31T07:58:29;98486.47;;;1.98;95.64
67517;BME280;54359;59.124;37.910;2022-10-31T08:00:57;98490.22;;;2.17;95.87
67517;BME280;54359;59.124;37.910;2022-10-31T08:03:33;98516.56;;;2.24;95.87
67517;BME280;54359;59.124;37.910;2022-10-31T08:06:22;98508.50;;;2.45;96.09
67517;BME280;54359;59.124;37.910;2022-10-31T08:09:27;98539.75;;;2.42;95.86
67517;BME280;54359;59.124;37.910;2022-10-31T08:11:56;98526.91;;;2.34;95.85
67517;BME280;54359;59.124;37.910;2022-10-31T08:14:23;98533.78;;;2.40;95.84
67517;BME280;54359;59.124;37.910;2022-10-31T08:17:23;98578.03;;;2.56;96.02
67517;BME280;54359;59.124;37.910;2022-10-31T08:19:53;98561.94;;;2.54;96.36
67517;BME280;54359;59.124;37.910;2022-10-31T08:22:27;98536.44;;;2.48;95.71
67517;BME280;54359;59.124;37.910;2022-10-31T08:25:37;98582.34;;;2.60;95.49
67517;BME280;54359;59.124;37.910;2022-10-31T08:28:04;98578.19;;;2.64;95.56
67517;BME280;54359;59.124;37.910;2022-10-31T08:30:51;98580.00;;;2.69;95.97
67517;BME280;54359;59.124;37.910;2022-10-31T08:33:37;98566.13;;;2.52;95.45
67517;BME280;54359;59.124;37.910;2022-10-31T08:36:55;98592.41;;;2.55;95.22
67517;BME280;54359;59.124;37.910;2022-10-31T08:39:45;98602.63;;;2.60;95.74
67517;BME280;54359;59.124;37.910;2022-10-31T08:42:15;98553.91;;;2.32;95.40
67517;BME280;54359;59.124;37.910;2022-10-31T08:45:00;98589.81;;;2.52;95.72
67517;BME280;54359;59.124;37.910;2022-10-31T08:47:46;98594.13;;;2.58;96.25
67517;BME280;54359;59.124;37.910;2022-10-31T08:50:11;98607.69;;;2.58;95.97
67517;BME280;54359;59.124;37.910;2022-10-31T08:52:42;98606.09;;;2.64;96.29
67517;BME280;54359;59.124;37.910;2022-10-31T08:55:29;98602.63;;;2.60;96.18
67517;BME280;54359;59.124;37.910;2022-10-31T08:58:56;98578.03;;;2.56;96.40
67517;BME280;54359;59.124;37.910;2022-10-31T09:02:23;98628.41;;;2.80;95.90
67517;BME280;54359;59.124;37.910;2022-10-31T09:05:10;98626.75;;;2.82;96.25
67517;BME280;54359;59.124;37.910;2022-10-31T09:07:40;98646.38;;;2.91;96.31
67517;BME280;54359;59.124;37.910;2022-10-31T09:14:05;98656.78;;;3.05;96.49
67517;BME280;54359;59.124;37.910;2022-10-31T09:17:13;98624.44;;;2.94;96.14
67517;BME280;54359;59.124;37.910;2022-10-31T09:20:18;98623.75;;;3.03;95.91
67517;BME280;54359;59.124;37.910;2022-10-31T09:23:16;98618.69;;;3.01;95.97
67517;BME280;54359;59.124;37.910;2022-10-31T09:26:08;98639.91;;;3.07;96.17
67517;BME280;54359;59.124;37.910;2022-10-31T09:28:43;98626.94;;;2.93;95.71
67517;BME280;54359;59.124;37.910;2022-10-31T09:31:19;98622.75;;;2.93;95.62
67517;BME280;54359;59.124;37.910;2022-10-31T09:34:27;98632.91;;;2.93;95.99
67517;BME280;54359;59.124;37.910;2022-10-31T09:37:15;98635.53;;;2.98;96.01
67517;BME280;54359;59.124;37.910;2022-10-31T09:40:07;98676.59;;;3.22;95.68
67517;BME280;54359;59.124;37.910;2022-10-31T09:47:15;98689.44;;;3.32;96.06
67517;BME280;54359;59.124;37.910;2022-10-31T09:55:05;98642.19;;;2.93;95.47
67517;BME280;54359;59.124;37.910;2022-10-31T09:58:25;98672.09;;;3.09;95.86
67517;BME280;54359;59.124;37.910;2022-10-31T10:01:33;98707.25;;;3.33;95.82
67517;BME280;54359;59.124;37.910;2022-10-31T10:07:54;98719.16;;;3.36;95.88
67517;BME280;54359;59.124;37.910;2022-10-31T10:21:01;98743.47;;;3.23;95.28
67517;BME280;54359;59.124;37.910;2022-10-31T10:27:09;98711.72;;;2.99;95.40
67517;BME280;54359;59.124;37.910;2022-10-31T10:32:22;98753.59;;;3.20;95.25
67517;BME280;54359;59.124;37.910;2022-10-31T10:41:03;98778.09;;;3.19;95.66
67517;BME280;54359;59.124;37.910;2022-10-31T10:43:36;98726.72;;;2.90;95.38
67517;BME280;54359;59.124;37.910;2022-10-31T10:46:47;98781.41;;;3.15;95.42
67517;BME280;54359;59.124;37.910;2022-10-31T10:49:51;98772.00;;;3.11;95.60
67517;BME280;54359;59.124;37.910;2022-10-31T10:56:06;98779.53;;;3.07;95.86
67517;BME280;54359;59.124;37.910;2022-10-31T10:58:39;98778.72;;;3.09;95.49
67517;BME280;54359;59.124;37.910;2022-10-31T11:01:31;98810.41;;;3.27;95.74
67517;BME280;54359;59.124;37.910;2022-10-31T11:04:34;98811.22;;;3.26;95.17
67517;BME280;54359;59.124;37.910;2022-10-31T11:07:11;98797.00;;;2.91;95.61
67517;BME280;54359;59.124;37.910;2022-10-31T11:09:40;98831.38;;;3.16;95.73
67517;BME280;54359;59.124;37.910;2022-10-31T11:12:32;98813.16;;;2.96;95.59
67517;BME280;54359;59.124;37.910;2022-10-31T11:15:21;98838.16;;;3.17;95.50
67517;BME280;54359;59.124;37.910;2022-10-31T11:18:20;98793.66;;;2.94;95.34
67517;BME280;54359;59.124;37.910;2022-10-31T11:20:53;98848.25;;;3.14;95.69
67517;BME280;54359;59.124;37.910;2022-10-31T11:23:23;98854.19;;;3.15;95.42
67517;BME280;54359;59.124;37.910;2022-10-31T11:26:21;98832.66;;;2.99;95.03
67517;BME280;54359;59.124;37.910;2022-10-31T11:29:22;98854.91;;;3.09;95.45
67517;BME280;54359;59.124;37.910;2022-10-31T11:31:59;98814.44;;;2.77;95.47
67517;BME280;54359;59.124;37.910;2022-10-31T11:34:58;98817.03;;;2.79;95.42
67517;BME280;54359;59.124;37.910;2022-10-31T11:37:44;98844.38;;;2.92;95.79
67517;BME280;54359;59.124;37.910;2022-10-31T11:40:23;98841.03;;;2.93;95.55
67517;BME280;54359;59.124;37.910;2022-10-31T11:43:02;98818.63;;;2.75;95.94
67517;BME280;54359;59.124;37.910;2022-10-31T11:46:11;98856.25;;;2.93;95.81
67517;BME280;54359;59.124;37.910;2022-10-31T11:49:16;98865.53;;;2.93;95.22
67517;BME280;54359;59.124;37.910;2022-10-31T11:52:29;98907.47;;;3.13;95.30
67517;BME280;54359;59.124;37.910;2022-10-31T11:55:36;98854.81;;;2.68;95.31
67517;BME280;54359;59.124;37.910;2022-10-31T11:58:27;98860.88;;;2.73;95.41
67517;BME280;54359;59.124;37.910;2022-10-31T12:00:59;98913.84;;;2.96;95.14
67517;BME280;54359;59.124;37.910;2022-10-31T12:04:09;98874.09;;;2.61;95.04
67517;BME280;54359;59.124;37.910;2022-10-31T12:07:01;98900.47;;;2.67;95.02
67517;BME280;54359;59.124;37.910;2022-10-31T12:09:59;98931.41;;;2.88;95.35
67517;BME280;54359;59.124;37.910;2022-10-31T12:42:07;99009.00;;;2.78;95.24
67517;BME280;54359;59.124;37.910;2022-10-31T12:46:06;98996.00;;;2.66;94.94
67517;BME280;54359;59.124;37.910;2022-10-31T13:00:34;99010.72;;;2.46;94.90
67517;BME280;54359;59.124;37.910;2022-10-31T13:43:07;99078.09;;;3.33;94.97
67517;BME280;54359;59.124;37.910;2022-10-31T13:47:28;99056.81;;;3.28;95.04
67517;BME280;54359;59.124;37.910;2022-10-31T14:04:22;99064.13;;;3.16;94.67
67517;BME280;54359;59.124;37.910;2022-10-31T14:07:41;99113.31;;;3.54;95.05
67517;BME280;54359;59.124;37.910;2022-10-31T14:10:50;99130.44;;;3.61;94.54
67517;BME280;54359;59.124;37.910;2022-10-31T14:17:50;99153.25;;;3.60;93.77
67517;BME280;54359;59.124;37.910;2022-10-31T14:20:44;99151.53;;;3.26;93.47
67517;BME280;54359;59.124;37.910;2022-10-31T14:29:42;99174.16;;;2.56;94.47
67517;BME280;54359;59.124;37.910;2022-10-31T14:32:29;99162.72;;;2.41;94.56
67517;BME280;54359;59.124;37.910;2022-10-31T14:35:34;99122.19;;;2.14;94.60
67517;BME280;54359;59.124;37.910;2022-10-31T14:41:15;99195.06;;;2.20;94.59
67517;BME280;54359;59.124;37.910;2022-10-31T14:44:51;99107.31;;;1.69;94.43
67517;BME280;54359;59.124;37.910;2022-10-31T14:50:56;99158.69;;;1.65;94.43
67517;BME280;54359;59.124;37.910;2022-10-31T14:53:48;99128.50;;;1.46;94.34
67517;BME280;54359;59.124;37.910;2022-10-31T14:56:48;99162.84;;;1.63;94.39
67517;BME280;54359;59.124;37.910;2022-10-31T14:59:24;99162.03;;;1.64;94.91
67517;BME280;54359;59.124;37.910;2022-10-31T15:05:55;99185.47;;;1.58;94.96
67517;BME280;54359;59.124;37.910;2022-10-31T15:08:46;99194.09;;;1.64;95.07
67517;BME280;54359;59.124;37.910;2022-10-31T15:11:27;99194.56;;;1.52;95.13
67517;BME280;54359;59.124;37.910;2022-10-31T15:14:28;99187.69;;;1.49;94.86
67517;BME280;54359;59.124;37.910;2022-10-31T15:17:20;99186.78;;;1.47;94.82
67517;BME280;54359;59.124;37.910;2022-10-31T15:20:03;99166.72;;;1.28;94.77
67517;BME280;54359;59.124;37.910;2022-10-31T15:23:14;99190.63;;;1.36;95.34
67517;BME280;54359;59.124;37.910;2022-10-31T15:26:35;99251.44;;;1.61;95.05
67517;BME280;54359;59.124;37.910;2022-10-31T15:30:00;99209.91;;;1.32;94.61
67517;BME280;54359;59.124;37.910;2022-10-31T15:32:49;99250.22;;;1.50;94.48
67517;BME280;54359;59.124;37.910;2022-10-31T15:36:19;99251.06;;;1.51;94.97
67517;BME280;54359;59.124;37.910;2022-10-31T15:39:36;99234.44;;;1.33;94.98
67517;BME280;54359;59.124;37.910;2022-10-31T15:43:17;99243.19;;;1.43;95.01
67517;BME280;54359;59.124;37.910;2022-10-31T15:45:42;99225.22;;;1.35;95.47
67517;BME280;54359;59.124;37.910;2022-10-31T15:48:36;99232.00;;;1.36;95.17
67517;BME280;54359;59.124;37.910;2022-10-31T15:51:55;99261.13;;;1.49;95.34
67517;BME280;54359;59.124;37.910;2022-10-31T15:55:15;99262.19;;;1.54;95.06
67517;BME280;54359;59.124;37.910;2022-10-31T15:58:00;99234.59;;;1.38;95.44
67517;BME280;54359;59.124;37.910;2022-10-31T16:00:38;99256.91;;;1.48;94.94
67517;BME280;54359;59.124;37.910;2022-10-31T16:03:28;99251.63;;;1.42;95.56
67517;BME280;54359;59.124;37.910;2022-10-31T16:06:04;99276.44;;;1.52;95.41
67517;BME280;54359;59.124;37.910;2022-10-31T16:08:47;99252.63;;;1.47;95.53
67517;BME280;54359;59.124;37.910;2022-10-31T16:11:46;99296.66;;;1.75;95.50
67517;BME280;54359;59.124;37.910;2022-10-31T16:14:54;99265.25;;;1.46;95.15
67517;BME280;54359;59.124;37.910;2022-10-31T16:17:58;99302.22;;;1.65;94.97
67517;BME280;54359;59.124;37.910;2022-10-31T16:20:51;99289.66;;;1.44;95.10
67517;BME280;54359;59.124;37.910;2022-10-31T16:23:54;99279.47;;;1.42;94.96
67517;BME280;54359;59.124;37.910;2022-10-31T16:26:49;99314.66;;;1.58;95.27
67517;BME280;54359;59.124;37.910;2022-10-31T16:29:46;99325.44;;;1.53;94.97
67517;BME280;54359;59.124;37.910;2022-10-31T16:32:53;99330.56;;;1.54;95.15
67517;BME280;54359;59.124;37.910;2022-10-31T16:35:45;99291.63;;;1.28;95.20
67517;BME280;54359;59.124;37.910;2022-10-31T16:38:32;99302.81;;;1.33;94.85
67517;BME280;54359;59.124;37.910;2022-10-31T16:41:01;99343.63;;;1.43;95.39
67517;BME280;54359;59.124;37.910;2022-10-31T16:43:30;99327.44;;;1.39;95.26
67517;BME280;54359;59.124;37.910;2022-10-31T16:45:58;99277.66;;;1.15;95.16
67517;BME280;54359;59.124;37.910;2022-10-31T16:48:33;99352.16;;;1.45;95.33
67517;BME280;54359;59.124;37.910;2022-10-31T16:51:21;99302.28;;;1.19;95.58
67517;BME280;54359;59.124;37.910;2022-10-31T16:54:10;99343.75;;;1.46;95.13
67517;BME280;54359;59.124;37.910;2022-10-31T16:56:38;99331.50;;;1.34;95.39
67517;BME280;54359;59.124;37.910;2022-10-31T16:59:30;99323.22;;;1.38;95.48
67517;BME280;54359;59.124;37.910;2022-10-31T17:02:17;99344.47;;;1.42;95.38
67517;BME280;54359;59.124;37.910;2022-10-31T17:04:47;99355.81;;;1.53;95.28
67517;BME280;54359;59.124;37.910;2022-10-31T17:07:33;99365.88;;;1.51;95.27
67517;BME280;54359;59.124;37.910;2022-10-31T17:10:02;99337.25;;;1.30;94.79
67517;BME280;54359;59.124;37.910;2022-10-31T17:12:35;99359.88;;;1.48;94.92
67517;BME280;54359;59.124;37.910;2022-10-31T17:15:26;99374.94;;;1.45;95.28
67517;BME280;54359;59.124;37.910;2022-10-31T17:18:14;99333.41;;;1.17;94.80
67517;BME280;54359;59.124;37.910;2022-10-31T17:21:03;99356.47;;;1.25;95.10
67517;BME280;54359;59.124;37.910;2022-10-31T17:23:54;99387.31;;;1.37;95.21
67517;BME280;54359;59.124;37.910;2022-10-31T17:26:27;99362.13;;;1.17;95.08
67517;BME280;54359;59.124;37.910;2022-10-31T17:29:13;99382.06;;;1.32;95.51
67517;BME280;54359;59.124;37.910;2022-10-31T17:31:48;99397.44;;;1.37;95.47
67517;BME280;54359;59.124;37.910;2022-10-31T17:34:37;99368.78;;;1.15;94.99
67517;BME280;54359;59.124;37.910;2022-10-31T17:37:42;99356.59;;;1.05;94.95
67517;BME280;54359;59.124;37.910;2022-10-31T17:40:19;99406.19;;;1.23;94.75
67517;BME280;54359;59.124;37.910;2022-10-31T17:43:14;99415.50;;;1.24;95.13
67517;BME280;54359;59.124;37.910;2022-10-31T17:45:54;99359.34;;;0.89;94.80
67517;BME280;54359;59.124;37.910;2022-10-31T17:49:35;99372.91;;;0.91;95.11
67517;BME280;54359;59.124;37.910;2022-10-31T17:52:28;99352.56;;;0.67;94.83
67517;BME280;54359;59.124;37.910;2022-10-31T17:55:32;99377.56;;;0.80;94.78
67517;BME280;54359;59.124;37.910;2022-10-31T17:58:38;99427.69;;;1.11;95.43
67517;BME280;54359;59.124;37.910;2022-10-31T18:01:39;99422.56;;;1.10;95.60
67517;BME280;54359;59.124;37.910;2022-10-31T18:04:24;99424.16;;;1.08;95.58